sensor_id;sensor_type;location;lat;lon;timestamp;P1;durP1;ratioP1;P2;durP2;ratioP2
1777;SDS011;71547;50.146;8.174;2024-02-04T00:00:31;1.50;;;1.23;;
1777;SDS011;71547;50.146;8.174;2024-02-04T00:03:00;2.60;;;2.40;;
1777;SDS011;71547;50.146;8.174;2024-02-04T00:05:27;1.83;;;1.70;;
1777;SDS011;71547;50.146;8.174;2024-02-04T00:07:55;2.60;;;2.50;;
1777;SDS011;71547;50.146;8.174;2024-02-04T00:10:22;2.67;;;2.57;;
1777;SDS011;71547;50.146;8.174;2024-02-04T00:12:49;1.57;;;1.47;;
1777;SDS011;71547;50.146;8.174;2024-02-04T00:15:16;0.90;;;0.80;;
1777;SDS011;71547;50.146;8.174;2024-02-04T00:17:44;1.27;;;1.17;;
1777;SDS011;71547;50.146;8.174;2024-02-04T00:20:12;1.10;;;1.00;;
1777;SDS011;71547;50.146;8.174;2024-02-04T00:22:39;1.00;;;0.90;;
1777;SDS011;71547;50.146;8.174;2024-02-04T00:25:07;1.00;;;0.90;;
1777;SDS011;71547;50.146;8.174;2024-02-04T00:27:38;1.00;;;0.90;;
1777;SDS011;71547;50.146;8.174;2024-02-04T00:30:05;1.13;;;1.03;;
1777;SDS011;71547;50.146;8.174;2024-02-04T00:32:34;1.20;;;1.10;;
1777;SDS011;71547;50.146;8.174;2024-02-04T00:35:01;1.10;;;1.00;;
1777;SDS011;71547;50.146;8.174;2024-02-04T00:37:31;1.00;;;0.90;;
1777;SDS011;71547;50.146;8.174;2024-02-04T00:39:58;1.20;;;1.10;;
1777;SDS011;71547;50.146;8.174;2024-02-04T00:42:25;1.20;;;1.10;;
1777;SDS011;71547;50.146;8.174;2024-02-04T00:44:52;0.87;;;0.83;;
1777;SDS011;71547;50.146;8.174;2024-02-04T00:47:29;1.83;;;0.80;;
1777;SDS011;71547;50.146;8.174;2024-02-04T00:50:12;2.30;;;0.70;;
1777;SDS011;71547;50.146;8.174;2024-02-04T00:53:25;0.80;;;0.70;;
1777;SDS011;71547;50.146;8.174;2024-02-04T00:56:15;0.87;;;0.73;;
1777;SDS011;71547;50.146;8.174;2024-02-04T00:58:55;0.97;;;0.90;;
1777;SDS011;71547;50.146;8.174;2024-02-04T01:01:44;4.80;;;0.80;;
1777;SDS011;71547;50.146;8.174;2024-02-04T01:04:38;1.10;;;1.00;;
1777;SDS011;71547;50.146;8.174;2024-02-04T01:07:09;2.13;;;1.43;;
1777;SDS011;71547;50.146;8.174;2024-02-04T01:09:45;0.90;;;0.80;;
1777;SDS011;71547;50.146;8.174;2024-02-04T01:12:20;1.10;;;0.70;;
1777;SDS011;71547;50.146;8.174;2024-02-04T01:15:00;0.80;;;0.80;;
1777;SDS011;71547;50.146;8.174;2024-02-04T01:18:06;0.80;;;0.70;;
1777;SDS011;71547;50.146;8.174;2024-02-04T01:20:36;0.80;;;0.63;;
1777;SDS011;71547;50.146;8.174;2024-02-04T01:23:39;0.90;;;0.80;;
1777;SDS011;71547;50.146;8.174;2024-02-04T01:26:19;0.80;;;0.60;;
1777;SDS011;71547;50.146;8.174;2024-02-04T01:28:56;0.83;;;0.80;;
1777;SDS011;71547;50.146;8.174;2024-02-04T01:31:35;1.67;;;0.97;;
1777;SDS011;71547;50.146;8.174;2024-02-04T01:34:20;1.70;;;1.60;;
1777;SDS011;71547;50.146;8.174;2024-02-04T01:36:55;1.20;;;1.10;;
1777;SDS011;71547;50.146;8.174;2024-02-04T01:39:36;1.30;;;0.90;;
1777;SDS011;71547;50.146;8.174;2024-02-04T01:42:17;0.90;;;0.80;;
1777;SDS011;71547;50.146;8.174;2024-02-04T01:45:05;1.37;;;1.07;;
1777;SDS011;71547;50.146;8.174;2024-02-04T01:47:50;0.90;;;0.80;;
1777;SDS011;71547;50.146;8.174;2024-02-04T01:50:37;1.20;;;0.80;;
1777;SDS011;71547;50.146;8.174;2024-02-04T01:53:22;0.80;;;0.70;;
1777;SDS011;71547;50.146;8.174;2024-02-04T01:55:55;0.80;;;0.60;;
1777;SDS011;71547;50.146;8.174;2024-02-04T01:58:36;0.80;;;0.70;;
1777;SDS011;71547;50.146;8.174;2024-02-04T02:01:17;0.80;;;0.70;;
1777;SDS011;71547;50.146;8.174;2024-02-04T02:03:47;1.13;;;0.70;;
1777;SDS011;71547;50.146;8.174;2024-02-04T02:06:39;0.80;;;0.63;;
1777;SDS011;71547;50.146;8.174;2024-02-04T02:09:38;0.80;;;0.63;;
1777;SDS011;71547;50.146;8.174;2024-02-04T02:12:14;0.80;;;0.60;;
1777;SDS011;71547;50.146;8.174;2024-02-04T02:15:14;0.90;;;0.70;;
1777;SDS011;71547;50.146;8.174;2024-02-04T02:17:51;0.80;;;0.60;;
1777;SDS011;71547;50.146;8.174;2024-02-04T02:20:39;0.77;;;0.67;;
1777;SDS011;71547;50.146;8.174;2024-02-04T02:23:30;0.80;;;0.77;;
1777;SDS011;71547;50.146;8.174;2024-02-04T02:26:06;0.80;;;0.70;;
1777;SDS011;71547;50.146;8.174;2024-02-04T02:28:40;1.57;;;0.80;;
1777;SDS011;71547;50.146;8.174;2024-02-04T02:31:21;0.80;;;0.60;;
1777;SDS011;71547;50.146;8.174;2024-02-04T02:34:07;0.70;;;0.60;;
1777;SDS011;71547;50.146;8.174;2024-02-04T02:36:56;0.70;;;0.60;;
1777;SDS011;71547;50.146;8.174;2024-02-04T02:39:57;0.80;;;0.70;;
1777;SDS011;71547;50.146;8.174;2024-02-04T02:42:48;0.97;;;0.87;;
1777;SDS011;71547;50.146;8.174;2024-02-04T02:45:23;2.20;;;0.70;;
1777;SDS011;71547;50.146;8.174;2024-02-04T02:48:01;0.83;;;0.77;;
1777;SDS011;71547;50.146;8.174;2024-02-04T02:50:38;0.90;;;0.80;;
1777;SDS011;71547;50.146;8.174;2024-02-04T02:53:08;0.87;;;0.80;;
1777;SDS011;71547;50.146;8.174;2024-02-04T02:55:39;1.07;;;0.73;;
1777;SDS011;71547;50.146;8.174;2024-02-04T02:58:18;1.43;;;1.10;;
1777;SDS011;71547;50.146;8.174;2024-02-04T03:00:48;0.80;;;0.70;;
1777;SDS011;71547;50.146;8.174;2024-02-04T03:03:21;0.80;;;0.70;;
1777;SDS011;71547;50.146;8.174;2024-02-04T03:05:57;0.90;;;0.80;;
1777;SDS011;71547;50.146;8.174;2024-02-04T03:08:26;0.80;;;0.70;;
1777;SDS011;71547;50.146;8.174;2024-02-04T03:11:13;1.20;;;1.10;;
1777;SDS011;71547;50.146;8.174;2024-02-04T03:13:43;1.03;;;0.90;;
1777;SDS011;71547;50.146;8.174;2024-02-04T03:16:15;1.43;;;0.90;;
1777;SDS011;71547;50.146;8.174;2024-02-04T03:18:51;0.80;;;0.70;;
1777;SDS011;71547;50.146;8.174;2024-02-04T03:21:23;0.80;;;0.80;;
1777;SDS011;71547;50.146;8.174;2024-02-04T03:24:04;1.40;;;0.83;;
1777;SDS011;71547;50.146;8.174;2024-02-04T03:26:33;1.03;;;0.90;;
1777;SDS011;71547;50.146;8.174;2024-02-04T03:29:12;1.00;;;0.70;;
1777;SDS011;71547;50.146;8.174;2024-02-04T03:31:39;1.00;;;0.80;;
1777;SDS011;71547;50.146;8.174;2024-02-04T03:34:06;1.00;;;0.90;;
1777;SDS011;71547;50.146;8.174;2024-02-04T03:36:34;0.80;;;0.70;;
1777;SDS011;71547;50.146;8.174;2024-02-04T03:39:07;1.23;;;0.80;;
1777;SDS011;71547;50.146;8.174;2024-02-04T03:41:38;1.10;;;1.00;;
1777;SDS011;71547;50.146;8.174;2024-02-04T03:44:09;0.80;;;0.73;;
1777;SDS011;71547;50.146;8.174;2024-02-04T03:46:42;1.27;;;0.80;;
1777;SDS011;71547;50.146;8.174;2024-02-04T03:49:15;0.80;;;0.70;;
1777;SDS011;71547;50.146;8.174;2024-02-04T03:51:46;1.40;;;1.10;;
1777;SDS011;71547;50.146;8.174;2024-02-04T03:54:20;1.17;;;0.80;;
1777;SDS011;71547;50.146;8.174;2024-02-04T03:56:49;0.90;;;0.70;;
1777;SDS011;71547;50.146;8.174;2024-02-04T03:59:22;2.40;;;0.80;;
1777;SDS011;71547;50.146;8.174;2024-02-04T04:01:55;0.90;;;0.80;;
1777;SDS011;71547;50.146;8.174;2024-02-04T04:04:28;1.77;;;0.80;;
1777;SDS011;71547;50.146;8.174;2024-02-04T04:06:58;1.20;;;0.70;;
1777;SDS011;71547;50.146;8.174;2024-02-04T04:09:28;1.10;;;0.83;;
1777;SDS011;71547;50.146;8.174;2024-02-04T04:12:03;1.00;;;0.90;;
1777;SDS011;71547;50.146;8.174;2024-02-04T04:14:32;0.80;;;0.60;;
1777;SDS011;71547;50.146;8.174;2024-02-04T04:17:01;0.80;;;0.70;;
1777;SDS011;71547;50.146;8.174;2024-02-04T04:19:28;0.83;;;0.70;;
1777;SDS011;71547;50.146;8.174;2024-02-04T04:22:01;0.90;;;0.70;;
1777;SDS011;71547;50.146;8.174;2024-02-04T04:24:37;1.17;;;0.80;;
1777;SDS011;71547;50.146;8.174;2024-02-04T04:27:06;1.77;;;1.10;;
1777;SDS011;71547;50.146;8.174;2024-02-04T04:29:37;1.40;;;0.73;;
1777;SDS011;71547;50.146;8.174;2024-02-04T04:32:05;0.80;;;0.70;;
1777;SDS011;71547;50.146;8.174;2024-02-04T04:34:38;1.07;;;0.80;;
1777;SDS011;71547;50.146;8.174;2024-02-04T04:37:14;0.90;;;0.80;;
1777;SDS011;71547;50.146;8.174;2024-02-04T04:39:43;0.80;;;0.70;;
1777;SDS011;71547;50.146;8.174;2024-02-04T04:42:10;0.77;;;0.70;;
1777;SDS011;71547;50.146;8.174;2024-02-04T04:44:39;1.00;;;0.90;;
1777;SDS011;71547;50.146;8.174;2024-02-04T04:47:14;0.70;;;0.60;;
1777;SDS011;71547;50.146;8.174;2024-02-04T04:49:41;0.80;;;0.70;;
1777;SDS011;71547;50.146;8.174;2024-02-04T04:52:11;0.87;;;0.80;;
1777;SDS011;71547;50.146;8.174;2024-02-04T04:54:43;1.20;;;0.80;;
1777;SDS011;71547;50.146;8.174;2024-02-04T04:57:19;0.73;;;0.60;;
1777;SDS011;71547;50.146;8.174;2024-02-04T04:59:50;0.80;;;0.70;;
1777;SDS011;71547;50.146;8.174;2024-02-04T05:02:23;0.80;;;0.70;;
1777;SDS011;71547;50.146;8.174;2024-02-04T05:04:50;1.50;;;0.83;;
1777;SDS011;71547;50.146;8.174;2024-02-04T05:07:19;0.80;;;0.70;;
1777;SDS011;71547;50.146;8.174;2024-02-04T05:09:49;0.90;;;0.80;;
1777;SDS011;71547;50.146;8.174;2024-02-04T05:12:25;0.80;;;0.80;;
1777;SDS011;71547;50.146;8.174;2024-02-04T05:14:56;1.10;;;0.77;;
1777;SDS011;71547;50.146;8.174;2024-02-04T05:17:23;0.80;;;0.70;;
1777;SDS011;71547;50.146;8.174;2024-02-04T05:19:55;0.90;;;0.80;;
1777;SDS011;71547;50.146;8.174;2024-02-04T05:22:22;0.80;;;0.60;;
1777;SDS011;71547;50.146;8.174;2024-02-04T05:24:54;0.70;;;0.60;;
1777;SDS011;71547;50.146;8.174;2024-02-04T05:27:30;0.90;;;0.70;;
1777;SDS011;71547;50.146;8.174;2024-02-04T05:30:03;0.80;;;0.70;;
1777;SDS011;71547;50.146;8.174;2024-02-04T05:32:35;0.80;;;0.60;;
1777;SDS011;71547;50.146;8.174;2024-02-04T05:35:04;0.70;;;0.60;;
1777;SDS011;71547;50.146;8.174;2024-02-04T05:37:35;2.00;;;0.83;;
1777;SDS011;71547;50.146;8.174;2024-02-04T05:40:03;0.80;;;0.60;;
1777;SDS011;71547;50.146;8.174;2024-02-04T05:42:43;0.90;;;0.80;;
1777;SDS011;71547;50.146;8.174;2024-02-04T05:45:15;0.80;;;0.70;;
1777;SDS011;71547;50.146;8.174;2024-02-04T05:47:42;1.00;;;0.77;;
1777;SDS011;71547;50.146;8.174;2024-02-04T05:50:13;0.80;;;0.63;;
1777;SDS011;71547;50.146;8.174;2024-02-04T05:52:45;0.90;;;0.70;;
1777;SDS011;71547;50.146;8.174;2024-02-04T05:55:15;0.70;;;0.60;;
1777;SDS011;71547;50.146;8.174;2024-02-04T05:57:42;0.80;;;0.70;;
1777;SDS011;71547;50.146;8.174;2024-02-04T06:00:16;0.80;;;0.70;;
1777;SDS011;71547;50.146;8.174;2024-02-04T06:02:54;0.70;;;0.60;;
1777;SDS011;71547;50.146;8.174;2024-02-04T06:05:24;0.80;;;0.70;;
1777;SDS011;71547;50.146;8.174;2024-02-04T06:07:51;0.80;;;0.70;;
1777;SDS011;71547;50.146;8.174;2024-02-04T06:10:24;0.70;;;0.70;;
1777;SDS011;71547;50.146;8.174;2024-02-04T06:12:57;0.70;;;0.60;;
1777;SDS011;71547;50.146;8.174;2024-02-04T06:15:34;0.90;;;0.63;;
1777;SDS011;71547;50.146;8.174;2024-02-04T06:18:11;0.70;;;0.50;;
1777;SDS011;71547;50.146;8.174;2024-02-04T06:20:40;0.77;;;0.60;;
1777;SDS011;71547;50.146;8.174;2024-02-04T06:23:09;0.90;;;0.67;;
1777;SDS011;71547;50.146;8.174;2024-02-04T06:25:38;0.90;;;0.80;;
1777;SDS011;71547;50.146;8.174;2024-02-04T06:28:10;0.80;;;0.70;;
1777;SDS011;71547;50.146;8.174;2024-02-04T06:30:42;1.30;;;1.20;;
1777;SDS011;71547;50.146;8.174;2024-02-04T06:33:09;6.07;;;5.33;;
1777;SDS011;71547;50.146;8.174;2024-02-04T06:35:55;11.37;;;8.60;;
1777;SDS011;71547;50.146;8.174;2024-02-04T06:38:22;10.73;;;7.47;;
1777;SDS011;71547;50.146;8.174;2024-02-04T06:40:49;18.73;;;13.47;;
1777;SDS011;71547;50.146;8.174;2024-02-04T06:43:26;6.50;;;5.03;;
1777;SDS011;71547;50.146;8.174;2024-02-04T06:45:59;2.53;;;2.33;;
1777;SDS011;71547;50.146;8.174;2024-02-04T06:48:32;3.23;;;3.13;;
1777;SDS011;71547;50.146;8.174;2024-02-04T06:51:02;1.10;;;1.00;;
1777;SDS011;71547;50.146;8.174;2024-02-04T06:53:38;0.80;;;0.70;;
1777;SDS011;71547;50.146;8.174;2024-02-04T06:56:07;1.00;;;0.90;;
1777;SDS011;71547;50.146;8.174;2024-02-04T06:58:37;0.83;;;0.80;;
1777;SDS011;71547;50.146;8.174;2024-02-04T07:01:06;0.90;;;0.80;;
1777;SDS011;71547;50.146;8.174;2024-02-04T07:03:36;2.20;;;0.70;;
1777;SDS011;71547;50.146;8.174;2024-02-04T07:06:06;1.53;;;0.70;;
1777;SDS011;71547;50.146;8.174;2024-02-04T07:08:34;1.07;;;0.87;;
1777;SDS011;71547;50.146;8.174;2024-02-04T07:11:04;0.80;;;0.70;;
1777;SDS011;71547;50.146;8.174;2024-02-04T07:13:57;0.77;;;0.67;;
1777;SDS011;71547;50.146;8.174;2024-02-04T07:16:41;0.80;;;0.70;;
1777;SDS011;71547;50.146;8.174;2024-02-04T07:19:13;1.67;;;0.80;;
1777;SDS011;71547;50.146;8.174;2024-02-04T07:21:53;1.10;;;1.00;;
1777;SDS011;71547;50.146;8.174;2024-02-04T07:24:35;0.80;;;0.70;;
1777;SDS011;71547;50.146;8.174;2024-02-04T07:27:25;1.10;;;1.00;;
1777;SDS011;71547;50.146;8.174;2024-02-04T07:30:01;1.00;;;0.90;;
1777;SDS011;71547;50.146;8.174;2024-02-04T07:32:36;0.87;;;0.70;;
1777;SDS011;71547;50.146;8.174;2024-02-04T07:35:06;0.80;;;0.80;;
1777;SDS011;71547;50.146;8.174;2024-02-04T07:37:41;0.83;;;0.80;;
1777;SDS011;71547;50.146;8.174;2024-02-04T07:40:11;0.80;;;0.80;;
1777;SDS011;71547;50.146;8.174;2024-02-04T07:42:41;1.93;;;0.90;;
1777;SDS011;71547;50.146;8.174;2024-02-04T07:45:14;0.70;;;0.70;;
1777;SDS011;71547;50.146;8.174;2024-02-04T07:47:54;0.97;;;0.80;;
1777;SDS011;71547;50.146;8.174;2024-02-04T07:50:26;1.00;;;0.90;;
1777;SDS011;71547;50.146;8.174;2024-02-04T07:52:58;0.90;;;0.77;;
1777;SDS011;71547;50.146;8.174;2024-02-04T07:55:30;1.10;;;1.00;;
1777;SDS011;71547;50.146;8.174;2024-02-04T07:57:57;0.80;;;0.80;;
1777;SDS011;71547;50.146;8.174;2024-02-04T08:00:26;1.00;;;0.90;;
1777;SDS011;71547;50.146;8.174;2024-02-04T08:03:01;0.83;;;0.70;;
1777;SDS011;71547;50.146;8.174;2024-02-04T08:05:31;1.03;;;0.93;;
1777;SDS011;71547;50.146;8.174;2024-02-04T08:08:01;0.90;;;0.80;;
1777;SDS011;71547;50.146;8.174;2024-02-04T08:10:37;0.90;;;0.80;;
1777;SDS011;71547;50.146;8.174;2024-02-04T08:13:04;0.90;;;0.70;;
1777;SDS011;71547;50.146;8.174;2024-02-04T08:15:36;0.97;;;0.80;;
1777;SDS011;71547;50.146;8.174;2024-02-04T08:18:05;1.10;;;0.90;;
1777;SDS011;71547;50.146;8.174;2024-02-04T08:20:34;1.00;;;0.80;;
1777;SDS011;71547;50.146;8.174;2024-02-04T08:23:05;0.70;;;0.67;;
1777;SDS011;71547;50.146;8.174;2024-02-04T08:25:35;0.93;;;0.83;;
1777;SDS011;71547;50.146;8.174;2024-02-04T08:28:07;0.80;;;0.60;;
1777;SDS011;71547;50.146;8.174;2024-02-04T08:30:39;1.00;;;0.90;;
1777;SDS011;71547;50.146;8.174;2024-02-04T08:33:10;0.97;;;0.87;;
1777;SDS011;71547;50.146;8.174;2024-02-04T08:35:42;1.53;;;0.93;;
1777;SDS011;71547;50.146;8.174;2024-02-04T08:38:12;0.97;;;0.87;;
1777;SDS011;71547;50.146;8.174;2024-02-04T08:40:42;1.03;;;0.87;;
1777;SDS011;71547;50.146;8.174;2024-02-04T08:43:15;1.53;;;1.00;;
1777;SDS011;71547;50.146;8.174;2024-02-04T08:45:45;0.80;;;0.70;;
1777;SDS011;71547;50.146;8.174;2024-02-04T08:48:22;1.10;;;0.83;;
1777;SDS011;71547;50.146;8.174;2024-02-04T08:50:52;1.03;;;0.80;;
1777;SDS011;71547;50.146;8.174;2024-02-04T08:53:24;0.80;;;0.70;;
1777;SDS011;71547;50.146;8.174;2024-02-04T08:55:56;0.83;;;0.80;;
1777;SDS011;71547;50.146;8.174;2024-02-04T08:58:26;0.90;;;0.83;;
1777;SDS011;71547;50.146;8.174;2024-02-04T09:00:57;1.10;;;1.00;;
1777;SDS011;71547;50.146;8.174;2024-02-04T09:03:28;1.00;;;0.80;;
1777;SDS011;71547;50.146;8.174;2024-02-04T09:05:56;2.50;;;1.57;;
1777;SDS011;71547;50.146;8.174;2024-02-04T09:08:23;1.30;;;0.80;;
1777;SDS011;71547;50.146;8.174;2024-02-04T09:10:50;0.80;;;0.70;;
1777;SDS011;71547;50.146;8.174;2024-02-04T09:13:17;0.90;;;0.80;;
1777;SDS011;71547;50.146;8.174;2024-02-04T09:15:44;0.80;;;0.70;;
1777;SDS011;71547;50.146;8.174;2024-02-04T09:18:12;0.93;;;0.80;;
1777;SDS011;71547;50.146;8.174;2024-02-04T09:20:40;0.80;;;0.70;;
1777;SDS011;71547;50.146;8.174;2024-02-04T09:23:08;0.90;;;0.73;;
1777;SDS011;71547;50.146;8.174;2024-02-04T09:25:35;1.50;;;0.80;;
1777;SDS011;71547;50.146;8.174;2024-02-04T09:28:03;0.90;;;0.70;;
1777;SDS011;71547;50.146;8.174;2024-02-04T09:30:31;1.10;;;0.70;;
1777;SDS011;71547;50.146;8.174;2024-02-04T09:32:58;0.93;;;0.80;;
1777;SDS011;71547;50.146;8.174;2024-02-04T09:35:26;0.80;;;0.70;;
1777;SDS011;71547;50.146;8.174;2024-02-04T09:37:54;1.40;;;1.30;;
1777;SDS011;71547;50.146;8.174;2024-02-04T09:40:23;0.90;;;0.70;;
1777;SDS011;71547;50.146;8.174;2024-02-04T09:42:51;1.10;;;0.70;;
1777;SDS011;71547;50.146;8.174;2024-02-04T09:45:18;0.80;;;0.80;;
1777;SDS011;71547;50.146;8.174;2024-02-04T09:47:47;0.90;;;0.70;;
1777;SDS011;71547;50.146;8.174;2024-02-04T09:50:17;0.80;;;0.70;;
1777;SDS011;71547;50.146;8.174;2024-02-04T09:52:48;1.67;;;0.77;;
1777;SDS011;71547;50.146;8.174;2024-02-04T09:55:19;0.90;;;0.80;;
1777;SDS011;71547;50.146;8.174;2024-02-04T09:57:50;0.83;;;0.83;;
1777;SDS011;71547;50.146;8.174;2024-02-04T10:00:19;0.80;;;0.70;;
1777;SDS011;71547;50.146;8.174;2024-02-04T10:02:47;0.90;;;0.80;;
1777;SDS011;71547;50.146;8.174;2024-02-04T10:05:15;0.80;;;0.70;;
1777;SDS011;71547;50.146;8.174;2024-02-04T10:07:44;1.30;;;0.90;;
1777;SDS011;71547;50.146;8.174;2024-02-04T10:10:11;0.80;;;0.60;;
1777;SDS011;71547;50.146;8.174;2024-02-04T10:12:40;0.87;;;0.70;;
1777;SDS011;71547;50.146;8.174;2024-02-04T10:15:09;0.80;;;0.80;;
1777;SDS011;71547;50.146;8.174;2024-02-04T10:17:37;1.03;;;0.70;;
1777;SDS011;71547;50.146;8.174;2024-02-04T10:20:14;1.03;;;0.80;;
1777;SDS011;71547;50.146;8.174;2024-02-04T10:22:46;1.17;;;0.70;;
1777;SDS011;71547;50.146;8.174;2024-02-04T10:25:13;0.90;;;0.70;;
1777;SDS011;71547;50.146;8.174;2024-02-04T10:27:45;0.80;;;0.70;;
1777;SDS011;71547;50.146;8.174;2024-02-04T10:30:14;1.40;;;0.70;;
1777;SDS011;71547;50.146;8.174;2024-02-04T10:32:41;0.80;;;0.70;;
1777;SDS011;71547;50.146;8.174;2024-02-04T10:35:09;1.00;;;0.70;;
1777;SDS011;71547;50.146;8.174;2024-02-04T10:37:38;0.87;;;0.80;;
1777;SDS011;71547;50.146;8.174;2024-02-04T10:40:06;1.10;;;1.00;;
1777;SDS011;71547;50.146;8.174;2024-02-04T10:42:35;0.70;;;0.60;;
1777;SDS011;71547;50.146;8.174;2024-02-04T10:45:09;0.80;;;0.70;;
1777;SDS011;71547;50.146;8.174;2024-02-04T10:47:37;0.87;;;0.80;;
1777;SDS011;71547;50.146;8.174;2024-02-04T10:50:06;0.80;;;0.60;;
1777;SDS011;71547;50.146;8.174;2024-02-04T10:52:35;0.80;;;0.70;;
1777;SDS011;71547;50.146;8.174;2024-02-04T10:55:08;0.80;;;0.70;;
1777;SDS011;71547;50.146;8.174;2024-02-04T10:57:37;1.00;;;0.70;;
1777;SDS011;71547;50.146;8.174;2024-02-04T11:00:06;0.70;;;0.60;;
1777;SDS011;71547;50.146;8.174;2024-02-04T11:02:39;0.80;;;0.73;;
1777;SDS011;71547;50.146;8.174;2024-02-04T11:05:12;2.27;;;0.70;;
1777;SDS011;71547;50.146;8.174;2024-02-04T11:07:41;1.00;;;0.70;;
1777;SDS011;71547;50.146;8.174;2024-02-04T11:10:10;0.70;;;0.70;;
1777;SDS011;71547;50.146;8.174;2024-02-04T11:12:38;0.90;;;0.70;;
1777;SDS011;71547;50.146;8.174;2024-02-04T11:15:11;1.03;;;0.93;;
1777;SDS011;71547;50.146;8.174;2024-02-04T11:17:52;1.00;;;0.90;;
1777;SDS011;71547;50.146;8.174;2024-02-04T11:23:36;0.77;;;0.67;;
1777;SDS011;71547;50.146;8.174;2024-02-04T11:26:13;0.80;;;0.70;;
1777;SDS011;71547;50.146;8.174;2024-02-04T11:28:44;0.80;;;0.70;;
1777;SDS011;71547;50.146;8.174;2024-02-04T11:31:16;1.83;;;0.60;;
1777;SDS011;71547;50.146;8.174;2024-02-04T11:33:45;0.90;;;0.80;;
1777;SDS011;71547;50.146;8.174;2024-02-04T11:36:13;1.10;;;0.70;;
1777;SDS011;71547;50.146;8.174;2024-02-04T11:38:43;0.80;;;0.70;;
1777;SDS011;71547;50.146;8.174;2024-02-04T11:41:21;0.80;;;0.70;;
1777;SDS011;71547;50.146;8.174;2024-02-04T11:43:51;0.80;;;0.80;;
1777;SDS011;71547;50.146;8.174;2024-02-04T11:46:28;0.80;;;0.70;;
1777;SDS011;71547;50.146;8.174;2024-02-04T11:49:00;1.33;;;0.70;;
1777;SDS011;71547;50.146;8.174;2024-02-04T11:51:28;1.10;;;1.00;;
1777;SDS011;71547;50.146;8.174;2024-02-04T11:53:55;1.67;;;0.70;;
1777;SDS011;71547;50.146;8.174;2024-02-04T11:56:23;0.90;;;0.70;;
1777;SDS011;71547;50.146;8.174;2024-02-04T11:58:51;0.80;;;0.67;;
1777;SDS011;71547;50.146;8.174;2024-02-04T12:01:21;0.80;;;0.80;;
1777;SDS011;71547;50.146;8.174;2024-02-04T12:03:50;1.10;;;0.90;;
1777;SDS011;71547;50.146;8.174;2024-02-04T12:06:19;0.70;;;0.60;;
1777;SDS011;71547;50.146;8.174;2024-02-04T12:08:47;0.70;;;0.60;;
1777;SDS011;71547;50.146;8.174;2024-02-04T12:11:14;0.80;;;0.80;;
1777;SDS011;71547;50.146;8.174;2024-02-04T12:13:42;0.80;;;0.70;;
1777;SDS011;71547;50.146;8.174;2024-02-04T12:16:10;0.80;;;0.70;;
1777;SDS011;71547;50.146;8.174;2024-02-04T12:18:47;2.90;;;0.77;;
1777;SDS011;71547;50.146;8.174;2024-02-04T12:21:16;0.80;;;0.70;;
1777;SDS011;71547;50.146;8.174;2024-02-04T12:23:43;0.80;;;0.70;;
1777;SDS011;71547;50.146;8.174;2024-02-04T12:26:11;1.17;;;0.87;;
1777;SDS011;71547;50.146;8.174;2024-02-04T12:28:40;0.90;;;0.80;;
1777;SDS011;71547;50.146;8.174;2024-02-04T12:31:15;1.00;;;0.90;;
1777;SDS011;71547;50.146;8.174;2024-02-04T12:33:51;3.27;;;0.97;;
1777;SDS011;71547;50.146;8.174;2024-02-04T12:36:22;0.90;;;0.70;;
1777;SDS011;71547;50.146;8.174;2024-02-04T12:38:52;0.83;;;0.80;;
1777;SDS011;71547;50.146;8.174;2024-02-04T12:41:21;1.30;;;0.90;;
1777;SDS011;71547;50.146;8.174;2024-02-04T12:43:50;0.90;;;0.70;;
1777;SDS011;71547;50.146;8.174;2024-02-04T12:46:18;0.90;;;0.73;;
1777;SDS011;71547;50.146;8.174;2024-02-04T12:48:50;0.97;;;0.87;;
1777;SDS011;71547;50.146;8.174;2024-02-04T12:51:27;0.80;;;0.70;;
1777;SDS011;71547;50.146;8.174;2024-02-04T12:54:02;0.90;;;0.70;;
1777;SDS011;71547;50.146;8.174;2024-02-04T12:56:39;0.70;;;0.60;;
1777;SDS011;71547;50.146;8.174;2024-02-04T12:59:09;0.80;;;0.60;;
1777;SDS011;71547;50.146;8.174;2024-02-04T13:01:37;0.80;;;0.70;;
1777;SDS011;71547;50.146;8.174;2024-02-04T13:04:05;0.80;;;0.70;;
1777;SDS011;71547;50.146;8.174;2024-02-04T13:06:38;0.80;;;0.73;;
1777;SDS011;71547;50.146;8.174;2024-02-04T13:09:06;0.70;;;0.60;;
1777;SDS011;71547;50.146;8.174;2024-02-04T13:11:35;0.80;;;0.70;;
1777;SDS011;71547;50.146;8.174;2024-02-04T13:14:02;0.80;;;0.70;;
1777;SDS011;71547;50.146;8.174;2024-02-04T13:16:29;1.03;;;0.60;;
1777;SDS011;71547;50.146;8.174;2024-02-04T13:18:56;1.00;;;0.70;;
1777;SDS011;71547;50.146;8.174;2024-02-04T13:21:24;0.80;;;0.73;;
1777;SDS011;71547;50.146;8.174;2024-02-04T13:23:52;1.20;;;0.80;;
1777;SDS011;71547;50.146;8.174;2024-02-04T13:26:20;1.40;;;0.67;;
1777;SDS011;71547;50.146;8.174;2024-02-04T13:28:47;0.80;;;0.60;;
1777;SDS011;71547;50.146;8.174;2024-02-04T13:31:14;0.80;;;0.67;;
1777;SDS011;71547;50.146;8.174;2024-02-04T13:33:42;0.80;;;0.70;;
1777;SDS011;71547;50.146;8.174;2024-02-04T13:36:09;0.90;;;0.80;;
1777;SDS011;71547;50.146;8.174;2024-02-04T13:38:37;1.07;;;0.90;;
1777;SDS011;71547;50.146;8.174;2024-02-04T13:41:05;1.00;;;0.70;;
1777;SDS011;71547;50.146;8.174;2024-02-04T13:43:34;0.80;;;0.70;;
1777;SDS011;71547;50.146;8.174;2024-02-04T13:46:01;1.00;;;0.80;;
1777;SDS011;71547;50.146;8.174;2024-02-04T13:48:29;1.10;;;1.00;;
1777;SDS011;71547;50.146;8.174;2024-02-04T13:50:57;0.87;;;0.70;;
1777;SDS011;71547;50.146;8.174;2024-02-04T13:53:24;0.87;;;0.70;;
1777;SDS011;71547;50.146;8.174;2024-02-04T13:55:53;0.93;;;0.80;;
1777;SDS011;71547;50.146;8.174;2024-02-04T13:58:29;0.80;;;0.77;;
1777;SDS011;71547;50.146;8.174;2024-02-04T14:00:57;1.00;;;0.90;;
1777;SDS011;71547;50.146;8.174;2024-02-04T14:03:25;9.23;;;3.93;;
1777;SDS011;71547;50.146;8.174;2024-02-04T14:05:54;1.50;;;1.40;;
1777;SDS011;71547;50.146;8.174;2024-02-04T14:08:21;1.00;;;0.90;;
1777;SDS011;71547;50.146;8.174;2024-02-04T14:10:49;1.50;;;1.40;;
1777;SDS011;71547;50.146;8.174;2024-02-04T14:13:16;1.17;;;1.07;;
1777;SDS011;71547;50.146;8.174;2024-02-04T14:15:45;2.27;;;2.17;;
1777;SDS011;71547;50.146;8.174;2024-02-04T14:18:12;1.10;;;1.00;;
1777;SDS011;71547;50.146;8.174;2024-02-04T14:20:39;3.20;;;3.00;;
1777;SDS011;71547;50.146;8.174;2024-02-04T14:23:06;1.90;;;1.80;;
1777;SDS011;71547;50.146;8.174;2024-02-04T14:25:35;1.40;;;1.30;;
1777;SDS011;71547;50.146;8.174;2024-02-04T14:28:02;1.20;;;0.83;;
1777;SDS011;71547;50.146;8.174;2024-02-04T14:30:31;1.13;;;0.90;;
1777;SDS011;71547;50.146;8.174;2024-02-04T14:32:59;0.80;;;0.70;;
1777;SDS011;71547;50.146;8.174;2024-02-04T14:35:27;0.80;;;0.70;;
1777;SDS011;71547;50.146;8.174;2024-02-04T14:37:54;5.57;;;0.80;;
1777;SDS011;71547;50.146;8.174;2024-02-04T14:40:21;0.80;;;0.73;;
1777;SDS011;71547;50.146;8.174;2024-02-04T14:42:48;1.00;;;0.90;;
1777;SDS011;71547;50.146;8.174;2024-02-04T14:45:15;1.23;;;0.70;;
1777;SDS011;71547;50.146;8.174;2024-02-04T14:47:42;0.80;;;0.60;;
1777;SDS011;71547;50.146;8.174;2024-02-04T14:50:11;0.87;;;0.87;;
1777;SDS011;71547;50.146;8.174;2024-02-04T14:52:39;0.90;;;0.80;;
1777;SDS011;71547;50.146;8.174;2024-02-04T14:55:07;1.00;;;0.90;;
1777;SDS011;71547;50.146;8.174;2024-02-04T14:57:36;1.00;;;0.80;;
1777;SDS011;71547;50.146;8.174;2024-02-04T15:00:04;0.93;;;0.83;;
1777;SDS011;71547;50.146;8.174;2024-02-04T15:02:33;1.00;;;0.90;;
1777;SDS011;71547;50.146;8.174;2024-02-04T15:05:00;1.10;;;1.00;;
1777;SDS011;71547;50.146;8.174;2024-02-04T15:07:30;1.10;;;1.00;;
1777;SDS011;71547;50.146;8.174;2024-02-04T15:09:59;1.10;;;1.00;;
1777;SDS011;71547;50.146;8.174;2024-02-04T15:12:26;0.80;;;0.70;;
1777;SDS011;71547;50.146;8.174;2024-02-04T15:14:55;0.90;;;0.70;;
1777;SDS011;71547;50.146;8.174;2024-02-04T15:17:24;0.80;;;0.77;;
1777;SDS011;71547;50.146;8.174;2024-02-04T15:19:52;0.90;;;0.80;;
1777;SDS011;71547;50.146;8.174;2024-02-04T15:22:20;1.00;;;0.60;;
1777;SDS011;71547;50.146;8.174;2024-02-04T15:24:50;0.80;;;0.67;;
1777;SDS011;71547;50.146;8.174;2024-02-04T15:27:18;0.70;;;0.60;;
1777;SDS011;71547;50.146;8.174;2024-02-04T15:29:47;0.80;;;0.70;;
1777;SDS011;71547;50.146;8.174;2024-02-04T15:32:15;1.10;;;0.70;;